createdAt,value
2023-01-13T00:01:26.581Z,7.43
2023-01-13T00:03:53.547Z,6.75
2023-01-13T00:06:22.835Z,7.45
2023-01-13T00:08:51.659Z,6.25
2023-01-13T00:13:45.993Z,6.22
2023-01-13T00:16:15.750Z,7.20
2023-01-13T00:18:43.201Z,6.07
2023-01-13T00:21:21.646Z,6.30
2023-01-13T00:23:49.044Z,6.90
2023-01-13T00:26:19.199Z,5.78
2023-01-13T00:28:46.051Z,6.68
2023-01-13T00:31:18.510Z,6.88
2023-01-13T00:33:48.972Z,6.97
2023-01-13T00:36:16.994Z,5.95
2023-01-13T00:38:44.634Z,7.30
2023-01-13T00:41:13.876Z,6.63
2023-01-13T00:43:41.320Z,6.57
2023-01-13T00:46:10.011Z,7.47
2023-01-13T00:51:06.249Z,7.28
2023-01-13T00:53:40.836Z,6.35
2023-01-13T00:56:40.783Z,7.10
2023-01-13T00:59:12.710Z,7.80
2023-01-13T01:01:40.395Z,7.93
2023-01-13T01:04:07.719Z,7.03
2023-01-13T01:06:34.537Z,6.63
2023-01-13T01:09:01.406Z,8.27
2023-01-13T01:11:31.109Z,7.10
2023-01-13T01:14:01.181Z,7.28
2023-01-13T01:16:30.335Z,6.90
2023-01-13T01:18:57.907Z,8.27
2023-01-13T01:21:26.283Z,7.95
2023-01-13T01:23:53.671Z,7.65
2023-01-13T01:26:23.137Z,6.80
2023-01-13T01:28:50.060Z,7.47
2023-01-13T01:31:19.595Z,8.27
2023-01-13T01:33:47.589Z,7.45
2023-01-13T01:36:16.370Z,7.20
2023-01-13T01:41:19.393Z,7.13
2023-01-13T01:43:59.757Z,8.20
2023-01-13T01:46:32.137Z,7.57
2023-01-13T01:49:04.964Z,7.07
2023-01-13T01:51:49.921Z,6.70
2023-01-13T01:54:24.027Z,7.00
2023-01-13T01:56:51.572Z,6.13
2023-01-13T01:59:20.402Z,6.50
2023-01-13T02:01:48.445Z,7.30
2023-01-13T02:04:22.677Z,7.10
2023-01-13T02:06:50.279Z,6.82
2023-01-13T02:09:17.814Z,7.32
2023-01-13T02:12:03.231Z,6.60
2023-01-13T02:14:31.950Z,7.63
2023-01-13T02:20:05.304Z,7.47
2023-01-13T02:22:37.853Z,6.88
2023-01-13T02:25:59.740Z,5.93
2023-01-13T02:28:36.403Z,7.13
2023-01-13T02:31:27.264Z,6.90
2023-01-13T02:34:09.265Z,7.03
2023-01-13T02:36:47.655Z,8.02
2023-01-13T02:39:17.222Z,8.00
2023-01-13T02:42:21.189Z,7.15
2023-01-13T02:45:03.914Z,7.32
2023-01-13T02:47:34.112Z,6.68
2023-01-13T02:50:04.022Z,7.63
2023-01-13T02:52:38.099Z,7.20
2023-01-13T02:55:13.827Z,7.82
2023-01-13T02:57:42.010Z,7.82
2023-01-13T03:00:13.480Z,7.30
2023-01-13T03:02:40.221Z,7.22
2023-01-13T03:05:07.263Z,7.18
2023-01-13T03:07:44.114Z,8.35
2023-01-13T03:10:35.476Z,8.27
2023-01-13T03:13:29.343Z,7.75
2023-01-13T03:16:14.431Z,6.85
2023-01-13T03:19:06.016Z,7.25
2023-01-13T03:21:46.139Z,7.30
2023-01-13T03:24:28.032Z,7.47
2023-01-13T03:27:15.195Z,6.70
2023-01-13T03:29:46.465Z,8.75
2023-01-13T03:32:35.378Z,7.68
2023-01-13T03:35:09.936Z,6.30
2023-01-13T03:37:41.419Z,6.45
2023-01-13T03:40:20.540Z,7.82
2023-01-13T03:43:13.418Z,5.93
2023-01-13T03:45:42.388Z,7.15
2023-01-13T03:48:17.961Z,7.80
2023-01-13T03:50:49.622Z,5.35
2023-01-13T03:53:37.571Z,6.35
2023-01-13T03:56:26.812Z,5.80
2023-01-13T03:58:54.322Z,5.47
2023-01-13T04:01:35.159Z,5.93
2023-01-13T04:04:08.318Z,6.30
2023-01-13T04:07:09.915Z,5.32
2023-01-13T04:09:45.267Z,5.20
2023-01-13T04:12:52.360Z,5.38
2023-01-13T04:15:22.049Z,6.80
2023-01-13T04:17:49.483Z,13.43
2023-01-13T04:20:16.679Z,24.17
2023-01-13T04:22:45.956Z,40.15
2023-01-13T04:25:12.719Z,37.47
2023-01-13T04:27:39.402Z,43.67
2023-01-13T04:30:07.073Z,41.10
2023-01-13T04:32:33.792Z,40.53
2023-01-13T04:35:00.472Z,41.33
2023-01-13T04:37:27.323Z,39.47
2023-01-13T04:39:53.943Z,37.60
2023-01-13T04:42:20.584Z,33.08
2023-01-13T04:44:47.316Z,24.63
2023-01-13T04:47:15.009Z,22.42
2023-01-13T04:49:41.668Z,16.98
2023-01-13T04:52:08.414Z,11.07
2023-01-13T04:54:35.167Z,9.93
2023-01-13T04:57:01.951Z,6.93
2023-01-13T04:59:28.640Z,4.88
2023-01-13T05:01:55.612Z,5.10
2023-01-13T05:04:22.573Z,5.60
2023-01-13T05:06:49.691Z,4.05
2023-01-13T05:09:16.795Z,3.67
2023-01-13T05:12:02.326Z,5.85
2023-01-13T05:14:47.699Z,7.35
2023-01-13T05:17:19.305Z,6.95
2023-01-13T05:19:46.032Z,6.75
2023-01-13T05:22:31.607Z,6.93
2023-01-13T05:25:17.041Z,7.20
2023-01-13T05:27:43.669Z,5.18
2023-01-13T05:30:10.909Z,4.78
2023-01-13T05:32:37.655Z,5.07
2023-01-13T05:35:04.857Z,3.80
2023-01-13T05:37:31.544Z,4.95
2023-01-13T05:40:16.785Z,4.80
2023-01-13T05:43:02.603Z,4.35
2023-01-13T05:45:31.555Z,3.90
2023-01-13T05:47:58.255Z,4.25
2023-01-13T05:50:25.413Z,2.97
2023-01-13T05:52:52.142Z,4.28
2023-01-13T05:55:18.845Z,3.63
2023-01-13T05:57:45.513Z,3.50
2023-01-13T06:00:12.622Z,3.78
2023-01-13T06:02:39.384Z,3.38
2023-01-13T06:05:06.321Z,4.38
2023-01-13T06:07:33.004Z,3.83
2023-01-13T06:09:59.714Z,3.75
2023-01-13T06:12:26.387Z,3.28
2023-01-13T06:14:53.047Z,4.25
2023-01-13T06:17:19.725Z,4.00
2023-01-13T06:19:46.442Z,4.13
2023-01-13T06:22:21.727Z,4.30
2023-01-13T06:24:50.415Z,4.22
2023-01-13T06:27:17.858Z,4.07
2023-01-13T06:29:44.663Z,4.75
2023-01-13T06:32:32.414Z,4.32
2023-01-13T06:35:05.703Z,4.17
2023-01-13T06:37:34.516Z,3.70
2023-01-13T06:42:51.238Z,3.80
2023-01-13T06:45:18.461Z,4.47
2023-01-13T06:47:45.295Z,4.00
2023-01-13T06:50:12.396Z,3.75
2023-01-13T06:52:39.043Z,3.53
2023-01-13T06:55:09.265Z,4.97
2023-01-13T06:57:46.216Z,3.58
2023-01-13T07:00:13.604Z,3.10
2023-01-13T07:02:41.520Z,4.50
2023-01-13T07:05:08.640Z,4.03
2023-01-13T07:07:35.426Z,3.67
2023-01-13T07:10:02.207Z,3.45
2023-01-13T07:12:29.017Z,3.88
2023-01-13T07:15:14.204Z,3.90
2023-01-13T07:17:40.962Z,4.18
2023-01-13T07:20:08.363Z,4.53
2023-01-13T07:22:35.062Z,4.40
2023-01-13T07:25:01.695Z,4.28
2023-01-13T07:27:28.425Z,5.05
2023-01-13T07:29:55.263Z,4.55
2023-01-13T07:32:21.931Z,4.97
2023-01-13T07:34:48.734Z,4.43
2023-01-13T07:37:15.451Z,4.65
2023-01-13T07:39:42.310Z,4.57
2023-01-13T07:42:28.160Z,4.40
2023-01-13T07:44:54.889Z,4.57
2023-01-13T07:47:23.341Z,4.80
2023-01-13T07:49:50.097Z,4.97
2023-01-13T07:52:16.727Z,5.03
2023-01-13T07:54:44.405Z,4.38
2023-01-13T07:57:11.159Z,5.35
2023-01-13T07:59:37.959Z,4.78
2023-01-13T08:02:04.927Z,4.55
2023-01-13T08:04:31.786Z,5.18
2023-01-13T08:06:58.402Z,4.07
2023-01-13T08:09:25.134Z,5.50
2023-01-13T08:12:14.475Z,5.25
2023-01-13T08:14:41.501Z,3.78
2023-01-13T08:17:09.468Z,5.32
2023-01-13T08:19:36.308Z,5.45
2023-01-13T08:22:03.094Z,4.47
2023-01-13T08:24:31.157Z,4.03
2023-01-13T08:26:57.835Z,4.03
2023-01-13T08:29:24.579Z,4.43
2023-01-13T08:31:51.356Z,4.85
2023-01-13T08:34:17.999Z,4.10
2023-01-13T08:36:44.740Z,5.25
2023-01-13T08:39:11.504Z,4.47
2023-01-13T08:41:56.802Z,3.33
2023-01-13T08:44:28.698Z,6.00
2023-01-13T08:46:56.387Z,4.80
2023-01-13T08:49:24.452Z,5.55
2023-01-13T08:51:53.852Z,5.18
2023-01-13T08:54:20.958Z,4.93
2023-01-13T08:56:48.183Z,4.85
2023-01-13T08:59:17.900Z,5.85
2023-01-13T09:01:45.977Z,4.10
2023-01-13T09:04:24.400Z,4.40
2023-01-13T09:06:51.951Z,4.60
2023-01-13T09:09:18.773Z,5.00
2023-01-13T09:12:07.590Z,5.18
2023-01-13T09:14:36.333Z,4.75
2023-01-13T09:19:30.032Z,4.38
2023-01-13T09:21:57.433Z,4.95
2023-01-13T09:24:24.720Z,5.25
2023-01-13T09:26:51.500Z,4.45
2023-01-13T09:29:18.515Z,4.38
2023-01-13T09:31:45.440Z,5.30
2023-01-13T09:34:36.418Z,6.00
2023-01-13T09:37:04.455Z,5.15
2023-01-13T09:39:32.847Z,4.88
2023-01-13T09:42:51.086Z,4.85
2023-01-13T09:45:17.855Z,4.38
2023-01-13T09:48:01.247Z,4.65
2023-01-13T09:50:39.013Z,4.90
2023-01-13T09:53:12.535Z,5.23
2023-01-13T09:55:39.250Z,5.03
2023-01-13T09:58:18.451Z,4.93
2023-01-13T10:00:47.582Z,5.38
2023-01-13T10:03:29.281Z,4.80
2023-01-13T10:06:04.604Z,5.18
2023-01-13T10:08:38.128Z,5.05
2023-01-13T10:11:36.176Z,4.35
2023-01-13T10:14:08.972Z,6.03
2023-01-13T10:16:46.588Z,5.13
2023-01-13T10:19:23.382Z,7.70
2023-01-13T10:21:53.390Z,5.43
2023-01-13T10:24:20.490Z,5.85
2023-01-13T10:27:00.151Z,6.50
2023-01-13T10:29:28.792Z,7.07
2023-01-13T10:31:56.739Z,5.60
2023-01-13T10:34:25.353Z,5.23
2023-01-13T10:37:15.261Z,5.75
2023-01-13T10:39:44.153Z,4.80
2023-01-13T10:42:18.726Z,5.10
2023-01-13T10:44:48.255Z,4.43
2023-01-13T10:47:42.865Z,6.00
2023-01-13T10:50:13.036Z,4.57
2023-01-13T10:52:56.950Z,5.57
2023-01-13T10:55:30.692Z,5.07
2023-01-13T10:57:57.892Z,5.22
2023-01-13T11:00:33.297Z,4.55
2023-01-13T11:03:32.954Z,5.22
2023-01-13T11:06:00.708Z,5.22
2023-01-13T11:08:47.179Z,4.15
2023-01-13T11:11:32.895Z,4.43
2023-01-13T11:14:24.145Z,4.45
2023-01-13T11:16:55.090Z,4.15
2023-01-13T11:19:24.553Z,6.32
2023-01-13T11:22:09.372Z,4.22
2023-01-13T11:24:51.176Z,3.75
2023-01-13T11:27:30.189Z,3.47
2023-01-13T11:30:14.899Z,4.05
2023-01-13T11:33:01.315Z,3.33
2023-01-13T11:35:31.419Z,4.13
2023-01-13T11:38:04.507Z,4.05
2023-01-13T11:40:42.493Z,4.00
2023-01-13T11:43:42.637Z,3.25
2023-01-13T11:46:10.972Z,3.38
2023-01-13T11:48:42.268Z,4.10
2023-01-13T11:51:14.922Z,3.60
2023-01-13T11:54:15.257Z,3.83
2023-01-13T11:56:54.368Z,3.42
2023-01-13T11:59:39.089Z,3.38
2023-01-13T12:02:20.567Z,3.78
2023-01-13T12:04:55.962Z,3.65
2023-01-13T12:07:38.131Z,3.97
2023-01-13T12:10:47.038Z,3.20
2023-01-13T12:13:51.406Z,3.22
2023-01-13T12:16:25.806Z,3.20
2023-01-13T12:19:07.791Z,4.43
2023-01-13T12:21:47.448Z,3.47
2023-01-13T12:24:21.454Z,3.53
2023-01-13T12:26:55.666Z,3.15
2023-01-13T12:29:37.402Z,4.53
2023-01-13T12:32:07.863Z,3.50
2023-01-13T12:35:05.184Z,4.18
2023-01-13T12:37:43.020Z,3.97
2023-01-13T12:40:20.306Z,2.93
2023-01-13T12:43:25.147Z,3.38
2023-01-13T12:45:51.861Z,3.40
2023-01-13T12:49:00.661Z,2.65
2023-01-13T12:51:33.130Z,3.22
2023-01-13T12:54:01.953Z,3.13
2023-01-13T12:56:45.257Z,3.40
2023-01-13T12:59:21.323Z,3.85
2023-01-13T13:02:08.258Z,3.25
2023-01-13T13:04:52.261Z,3.80
2023-01-13T13:07:30.848Z,2.83
2023-01-13T13:10:05.819Z,2.60
2023-01-13T13:13:11.564Z,3.47
2023-01-13T13:15:38.775Z,2.25
2023-01-13T13:18:06.214Z,2.80
2023-01-13T13:20:58.752Z,2.97
2023-01-13T13:23:44.154Z,3.00
2023-01-13T13:26:23.952Z,3.00
2023-01-13T13:29:22.396Z,2.58
2023-01-13T13:32:18.456Z,3.53
2023-01-13T13:34:59.474Z,3.95
2023-01-13T13:38:03.842Z,4.13
2023-01-13T13:40:52.500Z,2.92
2023-01-13T13:46:47.264Z,2.70
2023-01-13T13:49:16.248Z,2.65
2023-01-13T13:52:12.689Z,1.98
2023-01-13T13:54:42.704Z,2.58
2023-01-13T13:57:22.642Z,2.75
2023-01-13T13:59:55.866Z,3.25
2023-01-13T14:02:37.043Z,2.70
2023-01-13T14:05:16.688Z,2.58
2023-01-13T14:07:46.673Z,2.67
2023-01-13T14:10:22.863Z,2.58
2023-01-13T14:12:49.668Z,3.03
2023-01-13T14:15:26.002Z,2.65
2023-01-13T14:17:53.143Z,2.60
2023-01-13T14:20:19.916Z,3.05
2023-01-13T14:22:51.951Z,2.90
2023-01-13T14:25:39.633Z,3.17
2023-01-13T14:28:26.610Z,2.67
2023-01-13T14:30:54.580Z,3.20
2023-01-13T14:33:26.637Z,3.20
2023-01-13T14:36:16.389Z,3.03
2023-01-13T14:38:45.978Z,3.25
2023-01-13T14:41:25.799Z,2.70
2023-01-13T14:43:56.885Z,2.75
2023-01-13T14:46:25.410Z,3.72
2023-01-13T14:51:25.302Z,4.13
2023-01-13T14:53:52.432Z,2.95
2023-01-13T14:56:43.235Z,3.30
2023-01-13T14:59:35.085Z,3.70
2023-01-13T15:02:22.840Z,2.75
2023-01-13T15:04:53.834Z,2.45
2023-01-13T15:07:26.559Z,3.30
2023-01-13T15:10:02.399Z,3.40
2023-01-13T15:12:40.630Z,3.17
2023-01-13T15:15:24.664Z,2.83
2023-01-13T15:17:55.097Z,3.42
2023-01-13T15:20:23.693Z,3.30
2023-01-13T15:22:51.963Z,2.65
2023-01-13T15:25:19.034Z,2.83
2023-01-13T15:27:51.696Z,2.28
2023-01-13T15:30:22.202Z,2.85
2023-01-13T15:32:48.880Z,2.58
2023-01-13T15:35:17.419Z,3.05
2023-01-13T15:37:45.330Z,2.70
2023-01-13T15:40:23.132Z,2.50
2023-01-13T15:43:08.610Z,3.00
2023-01-13T15:45:55.778Z,3.50
2023-01-13T15:48:24.203Z,2.85
2023-01-13T15:50:51.217Z,2.80
2023-01-13T15:53:18.279Z,3.35
2023-01-13T15:55:50.102Z,2.85
2023-01-13T15:58:20.434Z,3.25
2023-01-13T16:00:47.284Z,2.78
2023-01-13T16:03:16.799Z,3.00
2023-01-13T16:05:44.961Z,3.05
2023-01-13T16:08:19.665Z,3.83
2023-01-13T16:10:47.171Z,3.45
2023-01-13T16:13:14.731Z,2.40
2023-01-13T16:15:49.131Z,2.65
2023-01-13T16:18:26.356Z,2.97
2023-01-13T16:20:55.083Z,3.03
2023-01-13T16:25:50.019Z,3.22
2023-01-13T16:28:22.498Z,2.88
2023-01-13T16:30:51.062Z,3.17
2023-01-13T16:33:17.775Z,3.53
2023-01-13T16:36:10.957Z,3.20
2023-01-13T16:38:31.317Z,3.05
2023-01-13T16:40:58.349Z,3.25
2023-01-13T16:43:26.730Z,3.00
2023-01-13T16:45:53.432Z,3.22
2023-01-13T16:48:22.676Z,3.10
2023-01-13T16:50:49.551Z,3.35
2023-01-13T16:53:16.562Z,3.38
2023-01-13T16:55:43.388Z,3.78
2023-01-13T16:58:19.929Z,3.00
2023-01-13T17:00:47.423Z,2.92
2023-01-13T17:03:15.160Z,2.92
2023-01-13T17:05:44.372Z,3.28
2023-01-13T17:08:17.659Z,3.10
2023-01-13T17:10:45.848Z,3.25
2023-01-13T17:13:16.787Z,3.42
2023-01-13T17:15:45.093Z,4.20
2023-01-13T17:18:13.312Z,3.03
2023-01-13T17:20:40.489Z,2.28
2023-01-13T17:23:07.230Z,2.17
2023-01-13T17:25:33.880Z,1.70
2023-01-13T17:28:00.569Z,1.83
2023-01-13T17:30:27.269Z,1.48
2023-01-13T17:32:53.930Z,1.17
2023-01-13T17:35:24.639Z,1.33
2023-01-13T17:37:52.476Z,0.90
2023-01-13T17:40:19.385Z,0.70
2023-01-13T17:42:46.091Z,0.90
2023-01-13T17:45:12.863Z,0.90
2023-01-13T17:47:39.516Z,1.05
2023-01-13T17:50:06.572Z,0.90
2023-01-13T17:52:35.078Z,1.30
2023-01-13T17:55:01.784Z,1.67
2023-01-13T17:57:28.423Z,1.58
2023-01-13T17:59:55.183Z,9.57
2023-01-13T18:02:22.043Z,1.50
2023-01-13T18:04:48.871Z,2.45
2023-01-13T18:07:15.589Z,2.15
2023-01-13T18:09:42.574Z,2.75
2023-01-13T18:12:09.386Z,2.47
2023-01-13T18:14:36.234Z,2.42
2023-01-13T18:17:03.061Z,2.00
2023-01-13T18:19:48.486Z,2.50
2023-01-13T18:22:33.719Z,2.38
2023-01-13T18:25:19.997Z,2.97
2023-01-13T18:27:47.943Z,2.83
2023-01-13T18:30:15.053Z,2.15
2023-01-13T18:32:42.050Z,2.22
2023-01-13T18:35:10.305Z,2.53
2023-01-13T18:37:40.042Z,6.22
2023-01-13T18:40:09.437Z,3.22
2023-01-13T18:42:53.580Z,4.30
2023-01-13T18:45:29.081Z,3.78
2023-01-13T18:47:57.921Z,3.50
2023-01-13T18:52:52.525Z,1.88
2023-01-13T18:55:19.471Z,2.33
2023-01-13T18:57:46.486Z,2.00
2023-01-13T19:00:17.142Z,2.33
2023-01-13T19:02:44.941Z,2.65
2023-01-13T19:05:11.680Z,2.13
2023-01-13T19:07:40.559Z,2.30
2023-01-13T19:10:09.711Z,2.45
2023-01-13T19:12:36.664Z,1.77
2023-01-13T19:15:03.797Z,2.47
2023-01-13T19:17:34.704Z,2.60
2023-01-13T19:20:02.355Z,2.83
2023-01-13T19:22:34.997Z,3.30
2023-01-13T19:25:03.019Z,2.63
2023-01-13T19:27:31.517Z,2.70
2023-01-13T19:30:00.342Z,5.07
2023-01-13T19:32:28.368Z,2.88
2023-01-13T19:34:59.235Z,2.60
2023-01-13T19:37:30.136Z,3.22
2023-01-13T19:39:59.113Z,2.60
2023-01-13T19:42:44.532Z,2.72
2023-01-13T19:45:27.769Z,2.90
2023-01-13T19:47:55.877Z,2.58
2023-01-13T19:50:22.951Z,2.65
2023-01-13T19:52:49.733Z,3.33
2023-01-13T19:55:16.676Z,3.00
2023-01-13T19:57:43.522Z,2.78
2023-01-13T20:00:12.225Z,2.55
2023-01-13T20:02:44.761Z,3.47
2023-01-13T20:05:12.777Z,2.00
2023-01-13T20:07:39.662Z,2.80
2023-01-13T20:10:07.144Z,4.65
2023-01-13T20:12:33.805Z,6.68
2023-01-13T20:15:01.482Z,4.97
2023-01-13T20:17:29.684Z,1.90
2023-01-13T20:19:58.971Z,2.50
2023-01-13T20:22:25.696Z,13.32
2023-01-13T20:24:55.209Z,4.00
2023-01-13T20:27:23.994Z,7.57
2023-01-13T20:32:17.672Z,3.00
2023-01-13T20:34:44.479Z,8.25
2023-01-13T20:37:11.137Z,2.42
2023-01-13T20:39:37.926Z,2.20
2023-01-13T20:42:23.087Z,1.77
2023-01-13T20:44:49.913Z,2.72
2023-01-13T20:47:16.759Z,2.67
2023-01-13T20:49:43.709Z,4.05
2023-01-13T20:52:10.693Z,2.90
2023-01-13T20:54:40.429Z,4.50
2023-01-13T20:57:09.800Z,2.60
2023-01-13T20:59:37.668Z,2.20
2023-01-13T21:02:05.957Z,3.10
2023-01-13T21:04:32.940Z,3.08
2023-01-13T21:06:59.674Z,2.83
2023-01-13T21:09:29.444Z,4.82
2023-01-13T21:12:14.792Z,3.17
2023-01-13T21:15:00.426Z,5.13
2023-01-13T21:17:45.762Z,2.80
2023-01-13T21:20:14.406Z,2.83
2023-01-13T21:22:48.274Z,4.40
2023-01-13T21:25:16.480Z,4.32
2023-01-13T21:27:44.073Z,3.65
2023-01-13T21:30:14.851Z,3.92
2023-01-13T21:32:43.160Z,3.45
2023-01-13T21:35:10.302Z,3.45
2023-01-13T21:37:38.165Z,2.60
2023-01-13T21:40:06.912Z,3.53
2023-01-13T21:45:37.445Z,3.08
2023-01-13T21:48:05.437Z,2.78
2023-01-13T21:50:32.172Z,2.90
2023-01-13T21:52:59.635Z,3.08
2023-01-13T21:55:29.706Z,2.58
2023-01-13T21:58:07.130Z,3.15
2023-01-13T22:00:34.159Z,3.40
2023-01-13T22:03:04.267Z,3.10
2023-01-13T22:05:31.360Z,3.80
2023-01-13T22:07:58.333Z,2.80
2023-01-13T22:10:30.071Z,5.97
2023-01-13T22:13:00.140Z,3.78
2023-01-13T22:15:28.282Z,3.25
2023-01-13T22:17:56.006Z,2.97
2023-01-13T22:20:22.809Z,3.30
2023-01-13T22:22:50.119Z,2.13
2023-01-13T22:25:19.959Z,4.28
2023-01-13T22:27:48.281Z,3.58
2023-01-13T22:30:21.792Z,3.40
2023-01-13T22:32:48.692Z,3.05
2023-01-13T22:35:16.261Z,3.30
2023-01-13T22:37:43.163Z,3.00
2023-01-13T22:40:12.262Z,2.42
2023-01-13T22:42:40.947Z,2.78
2023-01-13T22:45:11.046Z,3.38
2023-01-13T22:47:38.016Z,2.80
2023-01-13T22:50:06.139Z,3.00
2023-01-13T22:52:34.187Z,3.75
2023-01-13T22:55:00.956Z,6.72
2023-01-13T22:57:36.331Z,3.10
2023-01-13T23:00:11.754Z,3.05
2023-01-13T23:02:38.922Z,3.72
2023-01-13T23:05:05.968Z,3.28
2023-01-13T23:07:32.619Z,3.40
2023-01-13T23:09:59.870Z,2.97
2023-01-13T23:12:26.712Z,2.40
2023-01-13T23:14:54.507Z,3.97
2023-01-13T23:17:21.208Z,3.03
2023-01-13T23:19:47.965Z,3.40
2023-01-13T23:22:15.575Z,3.95
2023-01-13T23:24:42.265Z,3.53
2023-01-13T23:27:10.028Z,3.97
2023-01-13T23:29:36.783Z,3.85
2023-01-13T23:32:03.817Z,2.95
2023-01-13T23:34:30.582Z,3.90
2023-01-13T23:36:57.294Z,3.47
2023-01-13T23:39:24.661Z,4.13
2023-01-13T23:41:51.616Z,3.20
2023-01-13T23:44:18.410Z,3.42
2023-01-13T23:46:45.084Z,2.88
2023-01-13T23:49:11.843Z,3.33
2023-01-13T23:51:38.755Z,3.80
2023-01-13T23:54:05.559Z,3.17
2023-01-13T23:56:32.902Z,3.17
2023-01-13T23:58:59.822Z,3.45
